sensor_id;sensor_type;location;lat;lon;timestamp;P1;durP1;ratioP1;P2;durP2;ratioP2
75261;SDS011;63859;51.064;4.580;2022-12-20T00:02:06;3.57;;;2.20;;
75261;SDS011;63859;51.064;4.580;2022-12-20T00:04:32;3.43;;;2.20;;
75261;SDS011;63859;51.064;4.580;2022-12-20T00:06:58;5.97;;;2.37;;
75261;SDS011;63859;51.064;4.580;2022-12-20T00:09:23;3.47;;;2.13;;
75261;SDS011;63859;51.064;4.580;2022-12-20T00:11:49;4.03;;;2.47;;
75261;SDS011;63859;51.064;4.580;2022-12-20T00:14:15;4.80;;;2.20;;
75261;SDS011;63859;51.064;4.580;2022-12-20T00:16:41;2.57;;;2.03;;
75261;SDS011;63859;51.064;4.580;2022-12-20T00:19:08;4.43;;;2.57;;
75261;SDS011;63859;51.064;4.580;2022-12-20T00:21:34;4.43;;;2.60;;
75261;SDS011;63859;51.064;4.580;2022-12-20T00:24:01;5.53;;;2.10;;
75261;SDS011;63859;51.064;4.580;2022-12-20T00:26:29;3.90;;;2.50;;
75261;SDS011;63859;51.064;4.580;2022-12-20T00:28:56;2.87;;;2.33;;
75261;SDS011;63859;51.064;4.580;2022-12-20T00:31:22;2.80;;;2.53;;
75261;SDS011;63859;51.064;4.580;2022-12-20T00:33:49;5.07;;;2.47;;
75261;SDS011;63859;51.064;4.580;2022-12-20T00:36:17;6.23;;;2.50;;
75261;SDS011;63859;51.064;4.580;2022-12-20T00:38:44;4.30;;;2.50;;
75261;SDS011;63859;51.064;4.580;2022-12-20T00:41:11;6.37;;;2.63;;
75261;SDS011;63859;51.064;4.580;2022-12-20T00:43:39;8.57;;;3.00;;
75261;SDS011;63859;51.064;4.580;2022-12-20T00:46:05;5.37;;;2.90;;
75261;SDS011;63859;51.064;4.580;2022-12-20T00:48:32;5.03;;;2.80;;
75261;SDS011;63859;51.064;4.580;2022-12-20T00:51:02;5.87;;;2.90;;
75261;SDS011;63859;51.064;4.580;2022-12-20T00:53:30;6.80;;;2.50;;
75261;SDS011;63859;51.064;4.580;2022-12-20T00:55:56;5.03;;;2.60;;
75261;SDS011;63859;51.064;4.580;2022-12-20T00:58:22;5.20;;;2.83;;
75261;SDS011;63859;51.064;4.580;2022-12-20T01:00:48;7.40;;;2.97;;
75261;SDS011;63859;51.064;4.580;2022-12-20T01:03:14;6.03;;;2.87;;
75261;SDS011;63859;51.064;4.580;2022-12-20T01:05:48;4.80;;;2.50;;
75261;SDS011;63859;51.064;4.580;2022-12-20T01:08:17;3.07;;;2.33;;
75261;SDS011;63859;51.064;4.580;2022-12-20T01:10:43;4.00;;;2.93;;
75261;SDS011;63859;51.064;4.580;2022-12-20T01:13:09;4.67;;;2.67;;
75261;SDS011;63859;51.064;4.580;2022-12-20T01:15:35;3.57;;;2.60;;
75261;SDS011;63859;51.064;4.580;2022-12-20T01:18:00;6.33;;;2.23;;
75261;SDS011;63859;51.064;4.580;2022-12-20T01:20:26;3.77;;;2.57;;
75261;SDS011;63859;51.064;4.580;2022-12-20T01:22:51;4.37;;;2.87;;
75261;SDS011;63859;51.064;4.580;2022-12-20T01:25:17;3.93;;;2.50;;
75261;SDS011;63859;51.064;4.580;2022-12-20T01:27:43;4.53;;;2.70;;
75261;SDS011;63859;51.064;4.580;2022-12-20T01:30:08;5.53;;;2.90;;
75261;SDS011;63859;51.064;4.580;2022-12-20T01:32:34;2.80;;;2.30;;
75261;SDS011;63859;51.064;4.580;2022-12-20T01:35:00;4.87;;;3.50;;
75261;SDS011;63859;51.064;4.580;2022-12-20T01:37:26;3.13;;;2.40;;
75261;SDS011;63859;51.064;4.580;2022-12-20T01:39:51;6.10;;;2.60;;
75261;SDS011;63859;51.064;4.580;2022-12-20T01:42:17;6.47;;;2.67;;
75261;SDS011;63859;51.064;4.580;2022-12-20T01:47:08;5.53;;;2.77;;
75261;SDS011;63859;51.064;4.580;2022-12-20T01:49:37;3.97;;;2.50;;
75261;SDS011;63859;51.064;4.580;2022-12-20T01:54:42;5.53;;;2.77;;
75261;SDS011;63859;51.064;4.580;2022-12-20T01:57:11;3.23;;;2.43;;
75261;SDS011;63859;51.064;4.580;2022-12-20T02:00:08;7.37;;;2.50;;
75261;SDS011;63859;51.064;4.580;2022-12-20T02:02:34;3.10;;;2.20;;
75261;SDS011;63859;51.064;4.580;2022-12-20T02:05:00;4.17;;;2.50;;
75261;SDS011;63859;51.064;4.580;2022-12-20T02:07:27;5.67;;;2.63;;
75261;SDS011;63859;51.064;4.580;2022-12-20T02:09:55;4.93;;;2.70;;
75261;SDS011;63859;51.064;4.580;2022-12-20T02:12:23;7.33;;;2.70;;
75261;SDS011;63859;51.064;4.580;2022-12-20T02:17:30;4.83;;;2.83;;
75261;SDS011;63859;51.064;4.580;2022-12-20T02:25:56;5.10;;;2.57;;
75261;SDS011;63859;51.064;4.580;2022-12-20T02:31:12;5.63;;;3.03;;
75261;SDS011;63859;51.064;4.580;2022-12-20T02:33:43;2.97;;;2.20;;
75261;SDS011;63859;51.064;4.580;2022-12-20T02:36:20;5.57;;;2.70;;
75261;SDS011;63859;51.064;4.580;2022-12-20T02:38:46;5.13;;;2.70;;
75261;SDS011;63859;51.064;4.580;2022-12-20T02:44:06;3.73;;;2.67;;
75261;SDS011;63859;51.064;4.580;2022-12-20T02:46:55;5.60;;;2.30;;
75261;SDS011;63859;51.064;4.580;2022-12-20T02:49:25;5.27;;;2.77;;
75261;SDS011;63859;51.064;4.580;2022-12-20T02:51:54;3.57;;;2.63;;
75261;SDS011;63859;51.064;4.580;2022-12-20T02:54:22;6.87;;;2.50;;
75261;SDS011;63859;51.064;4.580;2022-12-20T02:56:55;4.30;;;2.50;;
75261;SDS011;63859;51.064;4.580;2022-12-20T02:59:34;3.10;;;2.20;;
75261;SDS011;63859;51.064;4.580;2022-12-20T03:02:08;3.07;;;2.73;;
75261;SDS011;63859;51.064;4.580;2022-12-20T03:04:35;3.10;;;2.47;;
75261;SDS011;63859;51.064;4.580;2022-12-20T03:07:09;5.07;;;2.27;;
75261;SDS011;63859;51.064;4.580;2022-12-20T03:09:42;6.13;;;2.50;;
75261;SDS011;63859;51.064;4.580;2022-12-20T03:12:09;7.00;;;2.50;;
75261;SDS011;63859;51.064;4.580;2022-12-20T03:14:36;3.63;;;2.40;;
75261;SDS011;63859;51.064;4.580;2022-12-20T03:17:02;4.90;;;2.40;;
75261;SDS011;63859;51.064;4.580;2022-12-20T03:19:29;3.90;;;2.50;;
75261;SDS011;63859;51.064;4.580;2022-12-20T03:21:54;6.23;;;2.30;;
75261;SDS011;63859;51.064;4.580;2022-12-20T03:24:20;4.07;;;2.40;;
75261;SDS011;63859;51.064;4.580;2022-12-20T03:26:46;6.27;;;2.57;;
75261;SDS011;63859;51.064;4.580;2022-12-20T03:29:12;5.27;;;2.43;;
75261;SDS011;63859;51.064;4.580;2022-12-20T03:31:37;5.20;;;2.50;;
75261;SDS011;63859;51.064;4.580;2022-12-20T03:34:03;4.27;;;2.00;;
75261;SDS011;63859;51.064;4.580;2022-12-20T03:36:30;3.33;;;2.30;;
75261;SDS011;63859;51.064;4.580;2022-12-20T03:38:56;8.43;;;2.33;;
75261;SDS011;63859;51.064;4.580;2022-12-20T03:41:22;3.23;;;2.63;;
75261;SDS011;63859;51.064;4.580;2022-12-20T03:43:48;5.97;;;2.10;;
75261;SDS011;63859;51.064;4.580;2022-12-20T03:46:14;3.70;;;2.50;;
75261;SDS011;63859;51.064;4.580;2022-12-20T03:48:40;4.63;;;2.20;;
75261;SDS011;63859;51.064;4.580;2022-12-20T03:51:06;2.43;;;2.17;;
75261;SDS011;63859;51.064;4.580;2022-12-20T03:53:31;3.17;;;2.10;;
75261;SDS011;63859;51.064;4.580;2022-12-20T03:55:57;8.07;;;2.50;;
75261;SDS011;63859;51.064;4.580;2022-12-20T03:58:23;4.20;;;2.40;;
75261;SDS011;63859;51.064;4.580;2022-12-20T04:00:49;4.73;;;2.40;;
75261;SDS011;63859;51.064;4.580;2022-12-20T04:03:14;6.37;;;2.50;;
75261;SDS011;63859;51.064;4.580;2022-12-20T04:05:40;5.37;;;2.37;;
75261;SDS011;63859;51.064;4.580;2022-12-20T04:08:06;6.17;;;2.67;;
75261;SDS011;63859;51.064;4.580;2022-12-20T04:10:32;4.30;;;2.40;;
75261;SDS011;63859;51.064;4.580;2022-12-20T04:13:17;5.63;;;2.37;;
75261;SDS011;63859;51.064;4.580;2022-12-20T04:15:43;2.65;;;2.20;;
75261;SDS011;63859;51.064;4.580;2022-12-20T04:18:08;3.47;;;2.40;;
75261;SDS011;63859;51.064;4.580;2022-12-20T04:20:34;3.90;;;2.63;;
75261;SDS011;63859;51.064;4.580;2022-12-20T04:23:00;5.50;;;2.30;;
75261;SDS011;63859;51.064;4.580;2022-12-20T04:25:25;2.97;;;2.57;;
75261;SDS011;63859;51.064;4.580;2022-12-20T04:27:51;3.47;;;2.60;;
75261;SDS011;63859;51.064;4.580;2022-12-20T04:30:16;5.57;;;2.50;;
75261;SDS011;63859;51.064;4.580;2022-12-20T04:32:42;2.93;;;2.30;;
75261;SDS011;63859;51.064;4.580;2022-12-20T04:35:08;6.27;;;2.30;;
75261;SDS011;63859;51.064;4.580;2022-12-20T04:37:34;6.40;;;2.40;;
75261;SDS011;63859;51.064;4.580;2022-12-20T04:39:59;4.30;;;2.40;;
75261;SDS011;63859;51.064;4.580;2022-12-20T04:42:25;4.23;;;2.23;;
75261;SDS011;63859;51.064;4.580;2022-12-20T04:44:51;2.90;;;2.30;;
75261;SDS011;63859;51.064;4.580;2022-12-20T04:47:16;3.67;;;2.30;;
75261;SDS011;63859;51.064;4.580;2022-12-20T04:49:42;9.07;;;2.70;;
75261;SDS011;63859;51.064;4.580;2022-12-20T04:52:07;3.30;;;2.30;;
75261;SDS011;63859;51.064;4.580;2022-12-20T04:54:52;2.87;;;2.07;;
75261;SDS011;63859;51.064;4.580;2022-12-20T04:57:17;6.63;;;2.80;;
75261;SDS011;63859;51.064;4.580;2022-12-20T04:59:43;4.97;;;2.37;;
75261;SDS011;63859;51.064;4.580;2022-12-20T05:02:08;5.07;;;2.20;;
75261;SDS011;63859;51.064;4.580;2022-12-20T05:04:34;2.50;;;2.30;;
75261;SDS011;63859;51.064;4.580;2022-12-20T05:06:59;4.13;;;2.50;;
75261;SDS011;63859;51.064;4.580;2022-12-20T05:09:25;5.40;;;2.30;;
75261;SDS011;63859;51.064;4.580;2022-12-20T05:11:51;3.03;;;2.17;;
75261;SDS011;63859;51.064;4.580;2022-12-20T05:14:16;4.20;;;2.70;;
75261;SDS011;63859;51.064;4.580;2022-12-20T05:16:42;3.90;;;2.20;;
75261;SDS011;63859;51.064;4.580;2022-12-20T05:19:07;2.43;;;1.90;;
75261;SDS011;63859;51.064;4.580;2022-12-20T05:21:33;4.43;;;2.10;;
75261;SDS011;63859;51.064;4.580;2022-12-20T05:24:17;6.00;;;2.20;;
75261;SDS011;63859;51.064;4.580;2022-12-20T05:27:01;6.33;;;2.13;;
75261;SDS011;63859;51.064;4.580;2022-12-20T05:29:27;5.33;;;2.07;;
75261;SDS011;63859;51.064;4.580;2022-12-20T05:31:53;5.90;;;2.33;;
75261;SDS011;63859;51.064;4.580;2022-12-20T05:34:18;3.67;;;2.00;;
75261;SDS011;63859;51.064;4.580;2022-12-20T05:36:44;5.40;;;2.10;;
75261;SDS011;63859;51.064;4.580;2022-12-20T05:39:10;2.33;;;1.70;;
75261;SDS011;63859;51.064;4.580;2022-12-20T05:41:36;4.03;;;2.13;;
75261;SDS011;63859;51.064;4.580;2022-12-20T05:44:02;3.40;;;2.03;;
75261;SDS011;63859;51.064;4.580;2022-12-20T05:46:28;6.83;;;2.10;;
75261;SDS011;63859;51.064;4.580;2022-12-20T05:48:53;4.17;;;2.10;;
75261;SDS011;63859;51.064;4.580;2022-12-20T05:51:19;2.30;;;2.10;;
75261;SDS011;63859;51.064;4.580;2022-12-20T05:53:45;4.13;;;2.20;;
75261;SDS011;63859;51.064;4.580;2022-12-20T05:56:10;3.60;;;1.90;;
75261;SDS011;63859;51.064;4.580;2022-12-20T05:58:36;5.13;;;2.20;;
75261;SDS011;63859;51.064;4.580;2022-12-20T06:01:03;3.47;;;2.20;;
75261;SDS011;63859;51.064;4.580;2022-12-20T06:03:30;3.83;;;2.03;;
75261;SDS011;63859;51.064;4.580;2022-12-20T06:05:56;4.90;;;2.07;;
75261;SDS011;63859;51.064;4.580;2022-12-20T06:08:21;3.90;;;1.80;;
75261;SDS011;63859;51.064;4.580;2022-12-20T06:10:48;4.03;;;2.10;;
75261;SDS011;63859;51.064;4.580;2022-12-20T06:13:15;3.70;;;2.23;;
75261;SDS011;63859;51.064;4.580;2022-12-20T06:15:41;4.97;;;2.20;;
75261;SDS011;63859;51.064;4.580;2022-12-20T06:18:06;6.37;;;2.30;;
75261;SDS011;63859;51.064;4.580;2022-12-20T06:20:32;5.38;;;1.95;;
75261;SDS011;63859;51.064;4.580;2022-12-20T06:22:59;4.37;;;2.20;;
75261;SDS011;63859;51.064;4.580;2022-12-20T06:25:24;3.60;;;1.83;;
75261;SDS011;63859;51.064;4.580;2022-12-20T06:27:50;9.97;;;2.40;;
75261;SDS011;63859;51.064;4.580;2022-12-20T06:30:15;7.10;;;2.40;;
75261;SDS011;63859;51.064;4.580;2022-12-20T06:32:42;6.47;;;2.30;;
75261;SDS011;63859;51.064;4.580;2022-12-20T06:35:07;5.50;;;2.13;;
75261;SDS011;63859;51.064;4.580;2022-12-20T06:37:33;5.03;;;2.00;;
75261;SDS011;63859;51.064;4.580;2022-12-20T06:40:00;4.17;;;1.87;;
75261;SDS011;63859;51.064;4.580;2022-12-20T06:42:26;5.90;;;2.00;;
75261;SDS011;63859;51.064;4.580;2022-12-20T06:44:51;8.53;;;4.17;;
75261;SDS011;63859;51.064;4.580;2022-12-20T06:47:17;3.83;;;2.07;;
75261;SDS011;63859;51.064;4.580;2022-12-20T06:49:43;2.27;;;1.80;;
75261;SDS011;63859;51.064;4.580;2022-12-20T06:52:08;8.47;;;2.00;;
75261;SDS011;63859;51.064;4.580;2022-12-20T06:54:34;2.13;;;1.77;;
75261;SDS011;63859;51.064;4.580;2022-12-20T06:56:59;3.33;;;1.80;;
75261;SDS011;63859;51.064;4.580;2022-12-20T06:59:25;4.67;;;2.00;;
75261;SDS011;63859;51.064;4.580;2022-12-20T07:01:51;3.25;;;1.85;;
75261;SDS011;63859;51.064;4.580;2022-12-20T07:04:16;4.43;;;2.00;;
75261;SDS011;63859;51.064;4.580;2022-12-20T07:06:42;4.67;;;2.00;;
75261;SDS011;63859;51.064;4.580;2022-12-20T07:09:07;3.53;;;2.00;;
75261;SDS011;63859;51.064;4.580;2022-12-20T07:11:33;4.60;;;1.97;;
75261;SDS011;63859;51.064;4.580;2022-12-20T07:13:59;4.67;;;2.07;;
75261;SDS011;63859;51.064;4.580;2022-12-20T07:16:25;4.57;;;1.80;;
75261;SDS011;63859;51.064;4.580;2022-12-20T07:18:51;2.97;;;1.80;;
75261;SDS011;63859;51.064;4.580;2022-12-20T07:21:17;3.20;;;1.80;;
75261;SDS011;63859;51.064;4.580;2022-12-20T07:23:44;5.60;;;2.20;;
75261;SDS011;63859;51.064;4.580;2022-12-20T07:26:11;1.93;;;1.77;;
75261;SDS011;63859;51.064;4.580;2022-12-20T07:28:37;4.13;;;1.67;;
75261;SDS011;63859;51.064;4.580;2022-12-20T07:31:04;4.23;;;1.90;;
75261;SDS011;63859;51.064;4.580;2022-12-20T07:33:29;3.07;;;2.10;;
75261;SDS011;63859;51.064;4.580;2022-12-20T07:36:00;3.50;;;1.90;;
75261;SDS011;63859;51.064;4.580;2022-12-20T07:38:29;3.93;;;1.70;;
75261;SDS011;63859;51.064;4.580;2022-12-20T07:40:55;5.57;;;2.67;;
75261;SDS011;63859;51.064;4.580;2022-12-20T07:43:21;7.10;;;2.20;;
75261;SDS011;63859;51.064;4.580;2022-12-20T07:45:47;4.53;;;2.00;;
75261;SDS011;63859;51.064;4.580;2022-12-20T07:48:12;5.30;;;1.90;;
75261;SDS011;63859;51.064;4.580;2022-12-20T07:50:38;4.53;;;2.17;;
75261;SDS011;63859;51.064;4.580;2022-12-20T07:53:05;5.03;;;2.07;;
75261;SDS011;63859;51.064;4.580;2022-12-20T07:55:32;5.53;;;2.00;;
75261;SDS011;63859;51.064;4.580;2022-12-20T07:58:00;4.60;;;1.73;;
75261;SDS011;63859;51.064;4.580;2022-12-20T08:00:29;4.27;;;2.30;;
75261;SDS011;63859;51.064;4.580;2022-12-20T08:05:43;7.00;;;2.13;;
75261;SDS011;63859;51.064;4.580;2022-12-20T08:08:12;11.03;;;2.20;;
75261;SDS011;63859;51.064;4.580;2022-12-20T08:10:39;4.90;;;2.27;;
75261;SDS011;63859;51.064;4.580;2022-12-20T08:13:05;7.57;;;2.40;;
75261;SDS011;63859;51.064;4.580;2022-12-20T08:15:32;4.93;;;2.30;;
75261;SDS011;63859;51.064;4.580;2022-12-20T08:17:59;6.17;;;2.20;;
75261;SDS011;63859;51.064;4.580;2022-12-20T08:20:25;8.23;;;2.77;;
75261;SDS011;63859;51.064;4.580;2022-12-20T08:22:51;4.60;;;2.30;;
75261;SDS011;63859;51.064;4.580;2022-12-20T08:25:17;3.80;;;2.23;;
75261;SDS011;63859;51.064;4.580;2022-12-20T08:27:43;6.97;;;2.57;;
75261;SDS011;63859;51.064;4.580;2022-12-20T08:30:09;3.77;;;2.20;;
75261;SDS011;63859;51.064;4.580;2022-12-20T08:32:35;3.47;;;2.30;;
75261;SDS011;63859;51.064;4.580;2022-12-20T08:35:01;5.53;;;2.37;;
75261;SDS011;63859;51.064;4.580;2022-12-20T08:37:28;5.20;;;2.27;;
75261;SDS011;63859;51.064;4.580;2022-12-20T08:39:53;6.50;;;2.63;;
75261;SDS011;63859;51.064;4.580;2022-12-20T08:42:19;5.00;;;2.50;;
75261;SDS011;63859;51.064;4.580;2022-12-20T08:44:44;3.67;;;2.20;;
75261;SDS011;63859;51.064;4.580;2022-12-20T08:47:10;8.87;;;2.67;;
75261;SDS011;63859;51.064;4.580;2022-12-20T08:49:35;6.87;;;2.30;;
75261;SDS011;63859;51.064;4.580;2022-12-20T08:52:01;4.90;;;2.20;;
75261;SDS011;63859;51.064;4.580;2022-12-20T08:54:27;6.77;;;2.57;;
75261;SDS011;63859;51.064;4.580;2022-12-20T08:56:53;10.73;;;2.50;;
75261;SDS011;63859;51.064;4.580;2022-12-20T08:59:18;5.33;;;2.60;;
75261;SDS011;63859;51.064;4.580;2022-12-20T09:01:44;6.63;;;2.77;;
75261;SDS011;63859;51.064;4.580;2022-12-20T09:04:10;9.43;;;2.60;;
75261;SDS011;63859;51.064;4.580;2022-12-20T09:06:36;5.37;;;2.23;;
75261;SDS011;63859;51.064;4.580;2022-12-20T09:09:02;6.57;;;3.00;;
75261;SDS011;63859;51.064;4.580;2022-12-20T09:11:29;7.47;;;2.60;;
75261;SDS011;63859;51.064;4.580;2022-12-20T09:13:55;7.47;;;2.63;;
75261;SDS011;63859;51.064;4.580;2022-12-20T09:16:24;5.73;;;2.83;;
75261;SDS011;63859;51.064;4.580;2022-12-20T09:18:52;6.20;;;2.70;;
75261;SDS011;63859;51.064;4.580;2022-12-20T09:21:19;5.07;;;2.70;;
75261;SDS011;63859;51.064;4.580;2022-12-20T09:23:45;5.73;;;2.50;;
75261;SDS011;63859;51.064;4.580;2022-12-20T09:26:14;8.27;;;2.50;;
75261;SDS011;63859;51.064;4.580;2022-12-20T09:28:41;4.57;;;2.30;;
75261;SDS011;63859;51.064;4.580;2022-12-20T09:31:09;5.20;;;2.53;;
75261;SDS011;63859;51.064;4.580;2022-12-20T09:33:36;4.10;;;2.60;;
75261;SDS011;63859;51.064;4.580;2022-12-20T09:36:02;9.40;;;2.80;;
75261;SDS011;63859;51.064;4.580;2022-12-20T09:38:29;9.03;;;2.90;;
75261;SDS011;63859;51.064;4.580;2022-12-20T09:40:57;3.90;;;2.57;;
75261;SDS011;63859;51.064;4.580;2022-12-20T09:43:26;8.87;;;2.97;;
75261;SDS011;63859;51.064;4.580;2022-12-20T09:45:56;9.07;;;2.80;;
75261;SDS011;63859;51.064;4.580;2022-12-20T09:48:25;5.87;;;2.50;;
75261;SDS011;63859;51.064;4.580;2022-12-20T09:56:27;8.50;;;3.13;;
75261;SDS011;63859;51.064;4.580;2022-12-20T09:59:04;4.20;;;2.80;;
75261;SDS011;63859;51.064;4.580;2022-12-20T10:01:34;5.00;;;2.90;;
75261;SDS011;63859;51.064;4.580;2022-12-20T10:04:43;8.40;;;2.77;;
75261;SDS011;63859;51.064;4.580;2022-12-20T10:25:55;6.87;;;2.70;;
75261;SDS011;63859;51.064;4.580;2022-12-20T10:28:25;4.57;;;2.90;;
75261;SDS011;63859;51.064;4.580;2022-12-20T10:30:53;8.90;;;3.87;;
75261;SDS011;63859;51.064;4.580;2022-12-20T10:33:22;7.53;;;3.60;;
75261;SDS011;63859;51.064;4.580;2022-12-20T10:35:48;6.30;;;2.90;;
75261;SDS011;63859;51.064;4.580;2022-12-20T10:38:15;6.33;;;2.90;;
75261;SDS011;63859;51.064;4.580;2022-12-20T10:40:46;8.47;;;3.40;;
75261;SDS011;63859;51.064;4.580;2022-12-20T10:43:22;7.53;;;3.30;;
75261;SDS011;63859;51.064;4.580;2022-12-20T10:46:05;4.80;;;2.90;;
75261;SDS011;63859;51.064;4.580;2022-12-20T10:48:36;8.63;;;3.33;;
75261;SDS011;63859;51.064;4.580;2022-12-20T10:53:32;8.20;;;3.20;;
75261;SDS011;63859;51.064;4.580;2022-12-20T10:58:37;7.33;;;3.73;;
75261;SDS011;63859;51.064;4.580;2022-12-20T11:01:04;5.40;;;3.30;;
75261;SDS011;63859;51.064;4.580;2022-12-20T11:06:17;5.33;;;3.57;;
75261;SDS011;63859;51.064;4.580;2022-12-20T11:08:44;6.83;;;3.50;;
75261;SDS011;63859;51.064;4.580;2022-12-20T11:11:12;13.43;;;3.67;;
75261;SDS011;63859;51.064;4.580;2022-12-20T11:13:41;6.00;;;3.33;;
75261;SDS011;63859;51.064;4.580;2022-12-20T11:16:21;5.93;;;3.90;;
75261;SDS011;63859;51.064;4.580;2022-12-20T11:19:00;8.10;;;3.80;;
75261;SDS011;63859;51.064;4.580;2022-12-20T11:24:12;4.63;;;3.47;;
75261;SDS011;63859;51.064;4.580;2022-12-20T11:29:38;6.93;;;4.00;;
75261;SDS011;63859;51.064;4.580;2022-12-20T11:37:44;8.37;;;4.03;;
75261;SDS011;63859;51.064;4.580;2022-12-20T11:40:41;9.07;;;4.80;;
75261;SDS011;63859;51.064;4.580;2022-12-20T11:52:57;8.53;;;5.00;;
75261;SDS011;63859;51.064;4.580;2022-12-20T11:57:42;4.37;;;3.83;;
75261;SDS011;63859;51.064;4.580;2022-12-20T12:00:20;9.70;;;4.20;;
75261;SDS011;63859;51.064;4.580;2022-12-20T12:05:17;8.63;;;3.80;;
75261;SDS011;63859;51.064;4.580;2022-12-20T12:07:53;9.97;;;3.80;;
75261;SDS011;63859;51.064;4.580;2022-12-20T12:10:24;5.50;;;3.70;;
75261;SDS011;63859;51.064;4.580;2022-12-20T12:12:57;9.60;;;3.57;;
75261;SDS011;63859;51.064;4.580;2022-12-20T12:15:36;4.83;;;3.70;;
75261;SDS011;63859;51.064;4.580;2022-12-20T12:18:19;9.97;;;3.97;;
75261;SDS011;63859;51.064;4.580;2022-12-20T12:26:04;10.07;;;3.43;;
75261;SDS011;63859;51.064;4.580;2022-12-20T12:28:34;12.73;;;4.30;;
75261;SDS011;63859;51.064;4.580;2022-12-20T12:31:05;9.00;;;4.20;;
75261;SDS011;63859;51.064;4.580;2022-12-20T12:33:42;7.77;;;3.50;;
75261;SDS011;63859;51.064;4.580;2022-12-20T12:44:40;7.97;;;4.00;;
75261;SDS011;63859;51.064;4.580;2022-12-20T12:47:20;8.40;;;4.43;;
75261;SDS011;63859;51.064;4.580;2022-12-20T12:49:52;8.30;;;4.67;;
75261;SDS011;63859;51.064;4.580;2022-12-20T12:52:36;11.13;;;4.30;;
75261;SDS011;63859;51.064;4.580;2022-12-20T12:55:32;10.90;;;3.90;;
75261;SDS011;63859;51.064;4.580;2022-12-20T13:00:54;12.77;;;4.50;;
75261;SDS011;63859;51.064;4.580;2022-12-20T13:11:40;9.10;;;3.90;;
75261;SDS011;63859;51.064;4.580;2022-12-20T13:19:39;8.90;;;3.80;;
75261;SDS011;63859;51.064;4.580;2022-12-20T13:22:18;9.90;;;3.93;;
75261;SDS011;63859;51.064;4.580;2022-12-20T13:24:58;12.40;;;4.40;;
75261;SDS011;63859;51.064;4.580;2022-12-20T13:27:37;10.77;;;4.10;;
75261;SDS011;63859;51.064;4.580;2022-12-20T13:43:05;15.57;;;5.17;;
75261;SDS011;63859;51.064;4.580;2022-12-20T13:45:45;11.17;;;4.47;;
75261;SDS011;63859;51.064;4.580;2022-12-20T13:48:20;9.43;;;4.30;;
75261;SDS011;63859;51.064;4.580;2022-12-20T13:50:52;9.03;;;4.33;;
75261;SDS011;63859;51.064;4.580;2022-12-20T13:53:20;13.37;;;4.50;;
75261;SDS011;63859;51.064;4.580;2022-12-20T13:55:47;10.73;;;5.40;;
75261;SDS011;63859;51.064;4.580;2022-12-20T13:58:32;8.07;;;4.60;;
75261;SDS011;63859;51.064;4.580;2022-12-20T14:01:05;11.80;;;4.40;;
75261;SDS011;63859;51.064;4.580;2022-12-20T14:03:38;12.07;;;4.27;;
75261;SDS011;63859;51.064;4.580;2022-12-20T14:06:09;7.90;;;4.50;;
75261;SDS011;63859;51.064;4.580;2022-12-20T14:08:37;11.63;;;5.03;;
75261;SDS011;63859;51.064;4.580;2022-12-20T14:13:39;10.27;;;5.50;;
75261;SDS011;63859;51.064;4.580;2022-12-20T14:16:15;9.73;;;5.37;;
75261;SDS011;63859;51.064;4.580;2022-12-20T14:19:04;12.47;;;5.10;;
75261;SDS011;63859;51.064;4.580;2022-12-20T14:21:29;7.77;;;5.43;;
75261;SDS011;63859;51.064;4.580;2022-12-20T14:23:56;15.60;;;5.70;;
75261;SDS011;63859;51.064;4.580;2022-12-20T14:26:26;8.67;;;5.10;;
75261;SDS011;63859;51.064;4.580;2022-12-20T14:28:54;9.60;;;5.37;;
75261;SDS011;63859;51.064;4.580;2022-12-20T14:33:59;11.70;;;5.27;;
75261;SDS011;63859;51.064;4.580;2022-12-20T14:36:26;10.70;;;6.00;;
75261;SDS011;63859;51.064;4.580;2022-12-20T14:38:52;14.13;;;6.47;;
75261;SDS011;63859;51.064;4.580;2022-12-20T14:41:53;9.80;;;5.60;;
75261;SDS011;63859;51.064;4.580;2022-12-20T14:44:14;11.20;;;5.47;;
75261;SDS011;63859;51.064;4.580;2022-12-20T14:46:48;11.13;;;5.57;;
75261;SDS011;63859;51.064;4.580;2022-12-20T14:49:26;10.07;;;5.70;;
75261;SDS011;63859;51.064;4.580;2022-12-20T14:52:04;13.43;;;5.37;;
75261;SDS011;63859;51.064;4.580;2022-12-20T14:54:30;12.77;;;6.00;;
75261;SDS011;63859;51.064;4.580;2022-12-20T14:56:57;12.03;;;6.00;;
75261;SDS011;63859;51.064;4.580;2022-12-20T14:59:27;11.67;;;5.60;;
75261;SDS011;63859;51.064;4.580;2022-12-20T15:01:53;11.90;;;5.83;;
75261;SDS011;63859;51.064;4.580;2022-12-20T15:06:55;12.93;;;5.97;;
75261;SDS011;63859;51.064;4.580;2022-12-20T15:09:21;11.87;;;6.07;;
75261;SDS011;63859;51.064;4.580;2022-12-20T15:11:47;12.03;;;6.63;;
75261;SDS011;63859;51.064;4.580;2022-12-20T15:14:27;9.30;;;6.17;;
75261;SDS011;63859;51.064;4.580;2022-12-20T15:17:10;11.30;;;5.83;;
75261;SDS011;63859;51.064;4.580;2022-12-20T15:19:38;10.23;;;5.90;;
75261;SDS011;63859;51.064;4.580;2022-12-20T15:22:04;8.90;;;5.97;;
75261;SDS011;63859;51.064;4.580;2022-12-20T15:24:30;9.50;;;5.23;;
75261;SDS011;63859;51.064;4.580;2022-12-20T15:26:56;10.37;;;6.50;;
75261;SDS011;63859;51.064;4.580;2022-12-20T15:29:23;14.27;;;5.93;;
75261;SDS011;63859;51.064;4.580;2022-12-20T15:31:51;10.80;;;6.13;;
75261;SDS011;63859;51.064;4.580;2022-12-20T15:34:27;10.73;;;6.07;;
75261;SDS011;63859;51.064;4.580;2022-12-20T15:37:01;13.67;;;6.23;;
75261;SDS011;63859;51.064;4.580;2022-12-20T15:39:27;10.70;;;6.47;;
75261;SDS011;63859;51.064;4.580;2022-12-20T15:41:53;14.10;;;5.60;;
75261;SDS011;63859;51.064;4.580;2022-12-20T15:44:23;8.40;;;5.70;;
75261;SDS011;63859;51.064;4.580;2022-12-20T15:46:54;8.83;;;6.00;;
75261;SDS011;63859;51.064;4.580;2022-12-20T15:49:29;14.97;;;5.93;;
75261;SDS011;63859;51.064;4.580;2022-12-20T15:51:56;9.90;;;5.47;;
75261;SDS011;63859;51.064;4.580;2022-12-20T15:56:53;9.40;;;6.00;;
75261;SDS011;63859;51.064;4.580;2022-12-20T15:59:22;8.53;;;5.60;;
75261;SDS011;63859;51.064;4.580;2022-12-20T16:01:48;10.23;;;5.97;;
75261;SDS011;63859;51.064;4.580;2022-12-20T16:04:15;10.77;;;6.03;;
75261;SDS011;63859;51.064;4.580;2022-12-20T16:06:45;9.87;;;5.87;;
75261;SDS011;63859;51.064;4.580;2022-12-20T16:09:12;12.50;;;6.10;;
75261;SDS011;63859;51.064;4.580;2022-12-20T16:11:38;9.20;;;5.97;;
75261;SDS011;63859;51.064;4.580;2022-12-20T16:14:05;12.70;;;6.73;;
75261;SDS011;63859;51.064;4.580;2022-12-20T16:16:31;14.90;;;11.63;;
75261;SDS011;63859;51.064;4.580;2022-12-20T16:18:58;12.13;;;7.43;;
75261;SDS011;63859;51.064;4.580;2022-12-20T16:21:34;11.43;;;6.57;;
75261;SDS011;63859;51.064;4.580;2022-12-20T16:24:05;8.83;;;6.60;;
75261;SDS011;63859;51.064;4.580;2022-12-20T16:26:34;15.33;;;7.30;;
75261;SDS011;63859;51.064;4.580;2022-12-20T16:29:00;12.50;;;6.90;;
75261;SDS011;63859;51.064;4.580;2022-12-20T16:31:33;8.57;;;6.50;;
75261;SDS011;63859;51.064;4.580;2022-12-20T16:34:01;13.07;;;7.20;;
75261;SDS011;63859;51.064;4.580;2022-12-20T16:36:29;12.20;;;7.33;;
75261;SDS011;63859;51.064;4.580;2022-12-20T16:38:55;8.60;;;6.50;;
75261;SDS011;63859;51.064;4.580;2022-12-20T16:41:25;14.53;;;7.93;;
75261;SDS011;63859;51.064;4.580;2022-12-20T16:43:52;11.87;;;8.07;;
75261;SDS011;63859;51.064;4.580;2022-12-20T16:46:20;13.37;;;8.10;;
75261;SDS011;63859;51.064;4.580;2022-12-20T16:48:47;15.80;;;7.97;;
75261;SDS011;63859;51.064;4.580;2022-12-20T16:51:21;14.27;;;8.43;;
75261;SDS011;63859;51.064;4.580;2022-12-20T16:53:56;15.20;;;8.73;;
75261;SDS011;63859;51.064;4.580;2022-12-20T16:56:24;12.60;;;8.10;;
75261;SDS011;63859;51.064;4.580;2022-12-20T16:58:50;12.03;;;8.63;;
75261;SDS011;63859;51.064;4.580;2022-12-20T17:01:17;14.27;;;8.00;;
75261;SDS011;63859;51.064;4.580;2022-12-20T17:03:45;15.17;;;8.10;;
75261;SDS011;63859;51.064;4.580;2022-12-20T17:06:11;10.83;;;7.20;;
75261;SDS011;63859;51.064;4.580;2022-12-20T17:08:38;11.43;;;6.90;;